Time,TemperatureF,DewpointF,PressureIn,WindDirection,WindDirectionDegrees,WindSpeedMPH,WindSpeedGustMPH,Humidity,HourlyPrecipIn,Conditions,Clouds,dailyrainin,SoftwareType,DateUTC
2013-02-23 00:03:00,9.0,3.0,30.06,West,263,1.1,1.1,76,0.00,CLR,,0.00,WeatherDisplay:10.37,2013-02-23 07:03:00,
2013-02-23 00:08:00,8.8,3.9,30.05,West,263,3.5,3.5,80,0.00,CLR,,0.00,WeatherDisplay:10.37,2013-02-23 07:08:00,
2013-02-23 00:14:00,8.3,2.3,30.05,West,263,0.0,0.0,76,0.00,CLR,,0.00,WeatherDisplay:10.37,2013-02-23 07:14:00,
2013-02-23 00:19:00,7.9,1.9,30.05,West,263,3.5,3.5,76,0.00,CLR,,0.00,WeatherDisplay:10.37,2013-02-23 07:19:00,
2013-02-23 00:24:00,7.9,3.0,30.06,West,263,3.5,3.5,80,0.00,CLR,,0.00,WeatherDisplay:10.37,2013-02-23 07:24:00,
2013-02-23 00:29:00,8.1,3.5,30.06,West,263,3.5,3.5,81,0.00,CLR,,0.00,WeatherDisplay:10.37,2013-02-23 07:29:00,
2013-02-23 00:34:00,7.7,2.0,30.07,West,263,2.3,2.3,77,0.00,CLR,,0.00,WeatherDisplay:10.37,2013-02-23 07:34:00,
2013-02-23 00:39:00,7.4,2.5,30.06,West,263,3.5,3.5,80,0.00,CLR,,0.00,WeatherDisplay:10.37,2013-02-23 07:39:00,
2013-02-23 00:44:00,6.9,1.2,30.06,West,263,1.1,1.1,77,0.00,CLR,,0.00,WeatherDisplay:10.37,2013-02-23 07:44:00,
2013-02-23 00:49:00,6.3,0.9,30.05,West,263,0.0,0.0,78,0.00,CLR,,0.00,WeatherDisplay:10.37,2013-02-23 07:49:00,
2013-02-23 00:54:00,6.1,1.5,30.05,West,263,1.1,1.1,81,0.00,CLR,,0.00,WeatherDisplay:10.37,2013-02-23 07:54:00,
2013-02-23 00:59:00,6.1,1.3,30.05,West,263,0.0,0.0,80,0.00,CLR,,0.00,WeatherDisplay:10.37,2013-02-23 07:59:00,
2013-02-23 01:04:00,6.1,1.8,30.05,West,263,0.0,0.0,82,0.00,CLR,,0.00,WeatherDisplay:10.37,2013-02-23 08:04:00,
2013-02-23 01:09:00,6.7,2.4,30.04,West,263,1.1,0.0,82,0.00,CLR,,0.00,WeatherDisplay:10.37,2013-02-23 08:09:00,
2013-02-23 01:14:00,6.9,2.3,30.05,West,263,3.0,3.0,81,0.00,CLR,,0.00,WeatherDisplay:10.37,2013-02-23 08:14:00,
2013-02-23 01:19:00,6.5,1.1,30.05,West,263,3.5,3.5,78,0.00,CLR,,0.00,WeatherDisplay:10.37,2013-02-23 08:19:00,
2013-02-23 01:24:00,5.8,0.7,30.05,West,263,2.3,2.3,79,0.00,CLR,,0.00,WeatherDisplay:10.37,2013-02-23 08:24:00,
2013-02-23 01:29:00,5.4,0.6,30.05,West,263,3.5,3.5,80,0.00,CLR,,0.00,WeatherDisplay:10.37,2013-02-23 08:29:00,
2013-02-23 01:34:00,5.4,0.6,30.04,West,263,3.5,3.5,80,0.00,CLR,,0.00,WeatherDisplay:10.37,2013-02-23 08:34:00,
2013-02-23 01:39:00,5.6,0.5,30.03,West,263,1.1,1.1,79,0.00,CLR,,0.00,WeatherDisplay:10.37,2013-02-23 08:39:00,
2013-02-23 01:44:00,6.0,1.7,30.02,West,263,1.0,0.0,82,0.00,CLR,,0.00,WeatherDisplay:10.37,2013-02-23 08:44:00,
2013-02-23 01:49:00,7.2,3.1,30.02,ENE,59,0.0,0.0,83,0.00,CLR,,0.00,WeatherDisplay:10.37,2013-02-23 08:49:00,
2013-02-23 01:54:00,7.6,3.3,30.03,NNW,344,2.3,2.3,82,0.00,CLR,,0.00,WeatherDisplay:10.37,2013-02-23 08:54:00,
2013-02-23 01:59:00,7.4,2.5,30.03,WSW,253,3.5,3.5,80,0.00,CLR,,0.00,WeatherDisplay:10.37,2013-02-23 08:59:00,
2013-02-23 02:04:00,7.4,2.5,30.03,WSW,253,2.3,2.3,80,0.00,CLR,,0.00,WeatherDisplay:10.37,2013-02-23 09:04:00,
2013-02-23 02:09:00,6.5,0.8,30.02,WSW,253,0.0,0.0,77,0.00,CLR,,0.00,WeatherDisplay:10.37,2013-02-23 09:09:00,
2013-02-23 02:14:00,5.8,1.0,30.02,WSW,253,0.0,0.0,80,0.00,CLR,,0.00,WeatherDisplay:10.37,2013-02-23 09:14:00,
2013-02-23 02:19:00,5.4,0.3,30.01,WSW,253,2.3,2.3,79,0.00,CLR,,0.00,WeatherDisplay:10.37,2013-02-23 09:19:00,
2013-02-23 02:24:00,5.4,0.8,30.01,WSW,253,3.5,3.5,81,0.00,CLR,,0.00,WeatherDisplay:10.37,2013-02-23 09:24:00,
2013-02-23 02:29:00,6.1,1.5,30.01,WSW,253,1.1,1.1,81,0.00,CLR,,0.00,WeatherDisplay:10.37,2013-02-23 09:29:00,
2013-02-23 02:34:00,6.1,1.0,30.01,WSW,253,0.0,0.0,79,0.00,CLR,,0.00,WeatherDisplay:10.37,2013-02-23 09:34:00,
2013-02-23 02:39:00,5.6,0.5,30.01,WSW,253,2.3,2.3,79,0.00,CLR,,0.00,WeatherDisplay:10.37,2013-02-23 09:39:00,
2013-02-23 02:44:00,5.8,0.7,30.01,WSW,253,3.5,3.5,79,0.00,CLR,,0.00,WeatherDisplay:10.37,2013-02-23 09:44:00,
2013-02-23 02:49:00,5.2,-0.2,30.01,WSW,253,3.5,3.5,78,0.00,CLR,,0.00,WeatherDisplay:10.37,2013-02-23 09:49:00,
2013-02-23 02:54:00,4.8,-0.8,30.00,WSW,253,3.5,3.5,77,0.00,CLR,,0.00,WeatherDisplay:10.37,2013-02-23 09:54:00,
2013-02-23 02:59:00,4.7,-0.9,30.00,WSW,253,2.3,2.3,77,0.00,CLR,,0.00,WeatherDisplay:10.37,2013-02-23 09:59:00,
2013-02-23 03:04:00,4.3,-0.8,30.00,WSW,253,2.3,2.3,79,0.00,CLR,,0.00,WeatherDisplay:10.37,2013-02-23 10:04:00,
2013-02-23 03:09:00,4.5,-0.6,30.00,WSW,253,3.5,3.5,79,0.00,CLR,,0.00,WeatherDisplay:10.37,2013-02-23 10:09:00,
2013-02-23 03:14:00,4.3,-1.0,30.00,WSW,253,2.3,2.3,78,0.00,CLR,,0.00,WeatherDisplay:10.37,2013-02-23 10:14:00,
2013-02-23 03:19:00,3.9,-1.2,30.00,WSW,253,2.3,2.3,79,0.00,CLR,,0.00,WeatherDisplay:10.37,2013-02-23 10:19:00,
2013-02-23 03:24:00,4.3,-0.8,30.00,WSW,253,3.5,3.5,79,0.00,CLR,,0.00,WeatherDisplay:10.37,2013-02-23 10:24:00,
2013-02-23 03:29:00,4.5,-1.4,30.00,WSW,253,2.3,2.3,76,0.00,CLR,,0.00,WeatherDisplay:10.37,2013-02-23 10:29:00,
2013-02-23 03:34:00,4.8,-0.3,29.99,WSW,253,3.5,3.5,79,0.00,CLR,,0.00,WeatherDisplay:10.37,2013-02-23 10:34:00,
2013-02-23 03:39:00,5.2,-0.4,29.99,WSW,253,3.5,3.5,77,0.00,CLR,,0.00,WeatherDisplay:10.37,2013-02-23 10:39:00,
2013-02-23 03:44:00,4.5,-1.4,30.00,WSW,253,3.5,3.5,76,0.00,CLR,,0.00,WeatherDisplay:10.37,2013-02-23 10:44:00,
2013-02-23 03:49:00,4.3,-1.3,30.01,WSW,253,3.5,3.5,77,0.00,CLR,,0.00,WeatherDisplay:10.37,2013-02-23 10:49:00,
2013-02-23 03:54:00,4.1,-2.1,30.01,WSW,253,2.3,2.3,75,0.00,CLR,,0.00,WeatherDisplay:10.37,2013-02-23 10:54:00,
2013-02-23 03:59:00,3.7,-2.5,30.01,WSW,253,2.3,2.3,75,0.00,CLR,,0.00,WeatherDisplay:10.37,2013-02-23 10:59:00,
2013-02-23 04:04:00,3.7,-1.9,30.01,WSW,253,3.5,3.5,77,0.00,CLR,,0.00,WeatherDisplay:10.37,2013-02-23 11:04:00,
2013-02-23 04:09:00,4.1,-1.8,30.01,WSW,253,3.5,3.5,76,0.00,CLR,,0.00,WeatherDisplay:10.37,2013-02-23 11:09:00,
2013-02-23 04:14:00,3.9,-1.7,30.01,WSW,253,2.3,2.3,77,0.00,CLR,,0.00,WeatherDisplay:10.37,2013-02-23 11:14:00,
2013-02-23 04:19:00,4.8,0.2,30.02,WSW,253,3.5,3.5,81,0.00,CLR,,0.00,WeatherDisplay:10.37,2013-02-23 11:19:00,
2013-02-23 04:24:00,5.0,-0.1,30.02,WSW,253,3.5,3.5,79,0.00,CLR,,0.00,WeatherDisplay:10.37,2013-02-23 11:24:00,
2013-02-23 04:29:00,5.2,0.1,30.01,WSW,253,2.3,2.3,79,0.00,CLR,,0.00,WeatherDisplay:10.37,2013-02-23 11:29:00,
2013-02-23 04:34:00,5.4,-0.2,30.01,WSW,253,1.1,1.1,77,0.00,CLR,,0.00,WeatherDisplay:10.37,2013-02-23 11:34:00,
2013-02-23 04:39:00,5.4,-0.2,30.01,WSW,253,2.3,2.3,77,0.00,CLR,,0.00,WeatherDisplay:10.37,2013-02-23 11:39:00,
2013-02-23 04:44:00,5.4,0.0,30.02,WSW,253,0.0,0.0,78,0.00,CLR,,0.00,WeatherDisplay:10.37,2013-02-23 11:44:00,
2013-02-23 04:49:00,5.4,0.3,30.02,WSW,253,0.0,0.0,79,0.00,CLR,,0.00,WeatherDisplay:10.37,2013-02-23 11:49:00,
2013-02-23 04:54:00,5.6,0.5,30.02,WSW,253,0.0,0.0,79,0.00,CLR,,0.00,WeatherDisplay:10.37,2013-02-23 11:54:00,
2013-02-23 04:59:00,5.6,0.8,30.02,WSW,253,0.0,0.0,80,0.00,CLR,,0.00,WeatherDisplay:10.37,2013-02-23 11:59:00,
2013-02-23 05:04:00,5.6,0.5,30.02,WSW,253,2.3,2.3,79,0.00,CLR,,0.00,WeatherDisplay:10.37,2013-02-23 12:04:00,
2013-02-23 05:09:00,5.8,1.0,30.02,WSW,253,3.5,3.5,80,0.00,CLR,,0.00,WeatherDisplay:10.37,2013-02-23 12:09:00,
2013-02-23 05:14:00,6.0,0.6,30.02,WSW,253,2.3,2.3,78,0.00,CLR,,0.00,WeatherDisplay:10.37,2013-02-23 12:14:00,
2013-02-23 05:19:00,5.8,-0.1,30.02,WSW,253,0.0,0.0,76,0.00,CLR,,0.00,WeatherDisplay:10.37,2013-02-23 12:19:00,
2013-02-23 05:24:00,5.0,-0.6,30.01,WSW,253,2.3,2.3,77,0.00,CLR,,0.00,WeatherDisplay:10.37,2013-02-23 12:24:00,
2013-02-23 05:29:00,4.8,-0.3,30.01,WSW,253,0.0,0.0,79,0.00,CLR,,0.00,WeatherDisplay:10.37,2013-02-23 12:29:00,
2013-02-23 05:34:00,5.2,0.1,30.01,WSW,253,2.3,2.3,79,0.00,CLR,,0.00,WeatherDisplay:10.37,2013-02-23 12:34:00,
2013-02-23 05:39:00,5.6,0.2,30.01,WSW,253,3.5,3.5,78,0.00,CLR,,0.00,WeatherDisplay:10.37,2013-02-23 12:39:00,
2013-02-23 05:44:00,6.0,-0.2,30.01,WSW,253,2.3,2.3,75,0.00,CLR,,0.00,WeatherDisplay:10.37,2013-02-23 12:44:00,
2013-02-23 05:49:00,5.4,-1.4,30.01,WSW,253,2.3,2.3,73,0.00,CLR,,0.00,WeatherDisplay:10.37,2013-02-23 12:49:00,
2013-02-23 05:54:00,5.0,-1.5,30.01,WSW,253,0.0,0.0,74,0.00,CLR,,0.00,WeatherDisplay:10.37,2013-02-23 12:54:00,
2013-02-23 05:59:00,4.5,-1.7,30.00,WSW,253,2.3,2.3,75,0.00,CLR,,0.00,WeatherDisplay:10.37,2013-02-23 12:59:00,
2013-02-23 06:04:00,4.3,-1.6,30.00,WSW,253,2.3,2.3,76,0.00,CLR,,0.00,WeatherDisplay:10.37,2013-02-23 13:04:00,
2013-02-23 06:09:00,4.5,-1.4,30.00,WSW,253,3.5,3.5,76,0.00,CLR,,0.00,WeatherDisplay:10.37,2013-02-23 13:09:00,
2013-02-23 06:14:00,4.8,-1.1,30.00,WSW,253,3.5,3.5,76,0.00,CLR,,0.00,WeatherDisplay:10.37,2013-02-23 13:14:00,
2013-02-23 06:19:00,5.6,-0.9,30.01,WSW,253,3.5,3.5,74,0.00,CLR,,0.00,WeatherDisplay:10.37,2013-02-23 13:19:00,
2013-02-23 06:24:00,6.1,-0.4,30.01,WSW,253,3.5,3.5,74,0.00,CLR,,0.00,WeatherDisplay:10.37,2013-02-23 13:24:00,
2013-02-23 06:29:00,6.3,-1.1,30.02,WSW,253,2.3,2.3,71,0.00,CLR,,0.00,WeatherDisplay:10.37,2013-02-23 13:29:00,
2013-02-23 06:34:00,6.1,-1.0,30.02,WSW,253,3.0,3.0,72,0.00,CLR,,0.00,WeatherDisplay:10.37,2013-02-23 13:34:00,
2013-02-23 06:39:00,5.6,-1.8,30.02,WSW,253,2.3,2.3,71,0.00,CLR,,0.00,WeatherDisplay:10.37,2013-02-23 13:39:00,
2013-02-23 06:44:00,5.0,-2.4,30.01,WSW,253,3.5,3.5,71,0.00,CLR,,0.00,WeatherDisplay:10.37,2013-02-23 13:44:00,
2013-02-23 06:49:00,4.3,-2.2,30.02,WSW,253,2.3,2.3,74,0.00,CLR,,0.00,WeatherDisplay:10.37,2013-02-23 13:49:00,
2013-02-23 06:54:00,4.3,-1.6,30.03,WSW,253,2.3,2.3,76,0.00,CLR,,0.00,WeatherDisplay:10.37,2013-02-23 13:54:00,
2013-02-23 06:59:00,4.7,-0.9,30.03,WSW,253,2.3,2.3,77,0.00,CLR,,0.00,WeatherDisplay:10.37,2013-02-23 13:59:00,
2013-02-23 07:04:00,5.0,-0.9,30.02,WSW,253,3.5,3.5,76,0.00,CLR,,0.00,WeatherDisplay:10.37,2013-02-23 14:04:00,
2013-02-23 07:09:00,5.6,-0.6,30.02,WSW,253,2.3,2.3,75,0.00,CLR,,0.00,WeatherDisplay:10.37,2013-02-23 14:09:00,
2013-02-23 07:14:00,6.3,0.1,30.02,WSW,253,1.1,0.0,75,0.00,CLR,,0.00,WeatherDisplay:10.37,2013-02-23 14:14:00,
2013-02-23 07:19:00,6.9,0.9,30.03,WSW,253,2.3,2.3,76,0.00,CLR,,0.00,WeatherDisplay:10.37,2013-02-23 14:19:00,
2013-02-23 07:24:00,8.1,1.5,30.03,WSW,253,0.0,0.0,74,0.00,CLR,,0.00,WeatherDisplay:10.37,2013-02-23 14:24:00,
2013-02-23 07:29:00,9.2,2.3,30.03,WSW,253,0.0,0.0,73,0.00,CLR,,0.00,WeatherDisplay:10.37,2013-02-23 14:29:00,
2013-02-23 07:34:00,9.7,2.8,30.03,WSW,253,0.0,0.0,73,0.00,CLR,,0.00,WeatherDisplay:10.37,2013-02-23 14:34:00,
2013-02-23 07:39:00,10.0,3.4,30.03,WSW,253,2.3,0.0,74,0.00,CLR,,0.00,WeatherDisplay:10.37,2013-02-23 14:39:00,
2013-02-23 07:44:00,10.9,4.2,30.03,WSW,253,0.0,0.0,74,0.00,CLR,,0.00,WeatherDisplay:10.37,2013-02-23 14:44:00,
2013-02-23 07:49:00,11.2,3.9,30.03,WSW,253,0.0,0.0,72,0.00,CLR,,0.00,WeatherDisplay:10.37,2013-02-23 14:49:00,
2013-02-23 07:54:00,12.4,4.8,30.02,WSW,253,0.0,0.0,71,0.00,CLR,,0.00,WeatherDisplay:10.37,2013-02-23 14:54:00,
2013-02-23 07:59:00,14.3,6.0,30.03,WSW,253,0.0,0.0,69,0.00,CLR,,0.00,WeatherDisplay:10.37,2013-02-23 14:59:00,
2013-02-23 08:04:00,16.2,6.8,30.03,North,360,1.1,1.2,66,0.00,CLR,,0.00,WeatherDisplay:10.37,2013-02-23 15:04:00,
2013-02-23 08:09:00,17.5,6.0,30.03,NE,54,3.5,3.5,60,0.00,CLR,,0.00,WeatherDisplay:10.37,2013-02-23 15:09:00,
2013-02-23 08:14:00,18.3,5.2,30.03,North,360,3.5,3.5,56,0.00,CLR,,0.00,WeatherDisplay:10.37,2013-02-23 15:14:00,
2013-02-23 08:19:00,19.1,6.3,30.03,NE,55,3.5,0.0,57,0.00,CLR,,0.00,WeatherDisplay:10.37,2013-02-23 15:19:00,
2013-02-23 08:24:00,19.2,3.1,30.04,East,97,2.0,2.0,49,0.00,CLR,,0.00,WeatherDisplay:10.37,2013-02-23 15:24:00,
2013-02-23 08:29:00,18.9,3.3,30.04,SE,146,4.6,4.6,50,0.00,CLR,,0.00,WeatherDisplay:10.37,2013-02-23 15:29:00,
2013-02-23 08:34:00,19.2,2.2,30.03,ENE,75,3.5,3.5,47,0.00,CLR,,0.00,WeatherDisplay:10.37,2013-02-23 15:34:00,
2013-02-23 08:39:00,19.2,3.6,30.03,ENE,75,0.0,0.0,50,0.00,CLR,,0.00,WeatherDisplay:10.37,2013-02-23 15:39:00,
2013-02-23 08:44:00,20.2,2.2,30.04,ENE,72,5.0,5.0,45,0.00,CLR,,0.00,WeatherDisplay:10.37,2013-02-23 15:44:00,
2013-02-23 08:49:00,19.4,3.8,30.04,ENE,63,1.1,1.1,50,0.00,CLR,,0.00,WeatherDisplay:10.37,2013-02-23 15:49:00,
2013-02-23 08:54:00,19.4,2.0,30.04,NE,47,4.6,4.6,46,0.00,CLR,,0.00,WeatherDisplay:10.37,2013-02-23 15:54:00,
2013-02-23 08:59:00,20.0,3.0,30.04,North,351,1.0,1.0,47,0.00,CLR,,0.00,WeatherDisplay:10.37,2013-02-23 15:59:00,
2013-02-23 09:04:00,20.5,3.4,30.04,SSE,151,3.5,3.5,47,0.00,CLR,,0.00,WeatherDisplay:10.37,2013-02-23 16:04:00,
2013-02-23 09:09:00,21.4,2.8,30.03,ENE,74,4.6,4.6,44,0.00,CLR,,0.00,WeatherDisplay:10.37,2013-02-23 16:09:00,
2013-02-23 09:14:00,20.8,1.8,30.03,ENE,71,3.5,3.5,43,0.00,CLR,,0.00,WeatherDisplay:10.37,2013-02-23 16:14:00,
2013-02-23 09:19:00,21.1,1.6,30.03,NE,51,4.0,4.0,42,0.00,CLR,,0.00,WeatherDisplay:10.37,2013-02-23 16:19:00,
2013-02-23 09:24:00,21.3,1.2,30.04,ENE,76,3.5,3.5,41,0.00,CLR,,0.00,WeatherDisplay:10.37,2013-02-23 16:24:00,
2013-02-23 09:29:00,21.9,0.7,30.03,ENE,58,7.0,7.0,39,0.00,CLR,,0.00,WeatherDisplay:10.37,2013-02-23 16:29:00,
2013-02-23 09:34:00,21.9,1.8,30.03,ESE,113,9.0,9.0,41,0.00,CLR,,0.00,WeatherDisplay:10.37,2013-02-23 16:34:00,
2013-02-23 09:39:00,22.9,3.7,30.04,ENE,74,2.0,2.3,43,0.00,CLR,,0.00,WeatherDisplay:10.37,2013-02-23 16:39:00,
2013-02-23 09:44:00,22.7,2.5,30.03,East,86,4.6,4.6,41,0.00,CLR,,0.00,WeatherDisplay:10.37,2013-02-23 16:44:00,
2013-02-23 09:49:00,22.7,2.0,30.04,ENE,76,3.5,3.5,40,0.00,CLR,,0.00,WeatherDisplay:10.37,2013-02-23 16:49:00,
2013-02-23 09:54:00,23.2,1.9,30.04,ENE,77,5.0,5.0,39,0.00,CLR,,0.00,WeatherDisplay:10.37,2013-02-23 16:54:00,
2013-02-23 09:59:00,22.9,3.7,30.04,East,86,3.5,3.5,43,0.00,CLR,,0.00,WeatherDisplay:10.37,2013-02-23 16:59:00,
2013-02-23 10:04:00,23.2,3.5,30.05,SE,130,3.5,3.5,42,0.00,CLR,,0.00,WeatherDisplay:10.37,2013-02-23 17:04:00,
2013-02-23 10:10:00,22.9,3.2,30.04,ENE,77,3.5,3.5,42,0.00,CLR,,0.00,WeatherDisplay:10.37,2013-02-23 17:10:00,
2013-02-23 10:15:00,23.6,4.3,30.04,ENE,77,2.3,2.3,43,0.00,CLR,,0.00,WeatherDisplay:10.37,2013-02-23 17:15:00,
2013-02-23 10:20:00,23.9,4.6,30.03,ESE,111,2.3,0.0,43,0.00,CLR,,0.00,WeatherDisplay:10.37,2013-02-23 17:20:00,
2013-02-23 10:25:00,24.1,5.8,30.02,ENE,66,4.0,4.0,45,0.00,CLR,,0.00,WeatherDisplay:10.37,2013-02-23 17:25:00,
2013-02-23 10:30:00,24.4,5.1,30.02,ENE,76,3.5,3.5,43,0.00,CLR,,0.00,WeatherDisplay:10.37,2013-02-23 17:30:00,
2013-02-23 10:35:00,24.8,5.9,30.02,NNW,347,1.0,1.2,44,0.00,CLR,,0.00,WeatherDisplay:10.37,2013-02-23 17:35:00,
2013-02-23 10:40:00,26.1,9.1,30.03,NE,47,4.0,4.0,48,0.00,CLR,,0.00,WeatherDisplay:10.37,2013-02-23 17:40:00,
2013-02-23 10:45:00,28.1,9.9,30.01,East,97,6.9,0.0,46,0.00,CLR,,0.00,WeatherDisplay:10.37,2013-02-23 17:45:00,
2013-02-23 10:50:00,28.8,10.6,30.00,SE,131,8.1,8.1,46,0.00,CLR,,0.00,WeatherDisplay:10.37,2013-02-23 17:50:00,
2013-02-23 10:55:00,30.1,10.8,30.01,North,360,8.1,8.1,44,0.00,CLR,,0.00,WeatherDisplay:10.37,2013-02-23 17:55:00,
2013-02-23 11:00:00,30.1,10.8,30.01,ENE,78,2.3,2.3,44,0.00,CLR,,0.00,WeatherDisplay:10.37,2013-02-23 18:00:00,
2013-02-23 11:05:00,30.9,12.0,30.00,East,79,5.0,5.0,45,0.00,CLR,,0.00,WeatherDisplay:10.37,2013-02-23 18:05:00,
2013-02-23 11:10:00,32.9,11.7,30.00,ENE,77,1.1,1.1,41,0.00,CLR,,0.00,WeatherDisplay:10.37,2013-02-23 18:10:00,
2013-02-23 11:15:00,34.6,12.1,29.98,NNE,26,9.2,9.2,39,0.00,CLR,,0.00,WeatherDisplay:10.37,2013-02-23 18:15:00,
2013-02-23 11:20:00,35.2,12.7,30.00,NW,304,4.6,4.6,39,0.00,CLR,,0.00,WeatherDisplay:10.37,2013-02-23 18:20:00,
2013-02-23 11:25:00,34.0,8.5,29.98,East,79,6.9,6.9,34,0.00,CLR,,0.00,WeatherDisplay:10.37,2013-02-23 18:25:00,
2013-02-23 11:30:00,33.2,9.1,29.98,South,187,0.0,0.3,36,0.00,CLR,,0.00,WeatherDisplay:10.37,2013-02-23 18:30:00,
2013-02-23 11:35:00,33.1,9.0,29.98,ENE,58,9.2,9.2,36,0.00,CLR,,0.00,WeatherDisplay:10.37,2013-02-23 18:35:00,
2013-02-23 11:40:00,32.7,12.6,29.98,WSW,240,13.8,13.8,43,0.00,CLR,,0.00,WeatherDisplay:10.37,2013-02-23 18:40:00,
2013-02-23 11:45:00,33.5,8.7,29.98,North,360,3.5,3.5,35,0.00,CLR,,0.00,WeatherDisplay:10.37,2013-02-23 18:45:00,
2013-02-23 11:50:00,34.1,11.1,29.98,WNW,289,13.8,13.8,38,0.00,CLR,,0.00,WeatherDisplay:10.37,2013-02-23 18:50:00,
2013-02-23 11:55:00,33.4,12.2,29.98,SE,130,4.6,4.6,41,0.00,CLR,,0.00,WeatherDisplay:10.37,2013-02-23 18:55:00,
2013-02-23 12:00:00,33.4,11.6,29.98,NNE,19,2.3,2.3,40,0.00,CLR,,0.00,WeatherDisplay:10.37,2013-02-23 19:00:00,
2013-02-23 12:05:00,33.1,8.4,29.97,ENE,71,3.5,3.5,35,0.00,CLR,,0.00,WeatherDisplay:10.37,2013-02-23 19:05:00,
2013-02-23 12:10:00,33.1,10.8,29.97,East,88,8.1,8.1,39,0.00,CLR,,0.00,WeatherDisplay:10.37,2013-02-23 19:10:00,
2013-02-23 12:15:00,33.5,8.7,29.97,NW,317,2.3,2.3,35,0.00,CLR,,0.00,WeatherDisplay:10.37,2013-02-23 19:15:00,
2013-02-23 12:20:00,34.0,9.2,29.96,WNW,302,4.6,4.6,35,0.00,CLR,,0.00,WeatherDisplay:10.37,2013-02-23 19:20:00,
2013-02-23 12:25:00,34.3,9.4,29.96,NNW,343,1.1,0.0,35,0.00,CLR,,0.00,WeatherDisplay:10.37,2013-02-23 19:25:00,
2013-02-23 12:30:00,34.0,6.5,29.96,ENE,69,4.6,4.6,31,0.00,CLR,,0.00,WeatherDisplay:10.37,2013-02-23 19:30:00,
2013-02-23 12:35:00,34.1,6.6,29.96,WNW,291,3.5,3.5,31,0.00,CLR,,0.00,WeatherDisplay:10.37,2013-02-23 19:35:00,
2013-02-23 12:40:00,34.7,7.8,29.96,SE,137,2.3,2.3,32,0.00,CLR,,0.00,WeatherDisplay:10.37,2013-02-23 19:40:00,
2013-02-23 12:45:00,35.2,10.9,29.95,West,261,5.8,5.8,36,0.00,CLR,,0.00,WeatherDisplay:10.37,2013-02-23 19:45:00,
2013-02-23 12:50:00,35.5,7.1,29.95,WNW,283,3.5,3.5,30,0.00,CLR,,0.00,WeatherDisplay:10.37,2013-02-23 19:50:00,
2013-02-23 12:55:00,35.6,6.4,29.95,West,260,8.1,8.1,29,0.00,CLR,,0.00,WeatherDisplay:10.37,2013-02-23 19:55:00,
2013-02-23 13:00:00,35.5,9.9,29.94,WSW,257,8.0,8.0,34,0.00,CLR,,0.00,WeatherDisplay:10.37,2013-02-23 20:00:00,
2013-02-23 13:05:00,35.2,9.6,29.94,WSW,238,8.1,8.1,34,0.00,CLR,,0.00,WeatherDisplay:10.37,2013-02-23 20:05:00,
2013-02-23 13:10:00,34.6,8.4,29.93,WSW,251,6.9,6.9,33,0.00,CLR,,0.00,WeatherDisplay:10.37,2013-02-23 20:10:00,
2013-02-23 13:15:00,34.0,9.8,29.92,NW,307,15.0,15.0,36,0.00,CLR,,0.00,WeatherDisplay:10.37,2013-02-23 20:15:00,
2013-02-23 13:20:00,33.2,7.2,29.92,WNW,288,17.0,17.0,33,0.00,CLR,,0.00,WeatherDisplay:10.37,2013-02-23 20:20:00,
2013-02-23 13:25:00,32.8,6.8,29.91,West,280,20.7,20.7,33,0.00,CLR,,0.00,WeatherDisplay:10.37,2013-02-23 20:25:00,
2013-02-23 13:30:00,32.7,7.4,29.90,West,266,9.2,9.2,34,0.00,CLR,,0.00,WeatherDisplay:10.37,2013-02-23 20:30:00,
2013-02-23 13:35:00,32.8,8.1,29.90,West,272,13.8,13.8,35,0.00,CLR,,0.00,WeatherDisplay:10.37,2013-02-23 20:35:00,
2013-02-23 13:40:00,33.2,9.1,29.89,WNW,286,19.6,19.6,36,0.00,CLR,,0.00,WeatherDisplay:10.37,2013-02-23 20:40:00,
2013-02-23 13:45:00,33.2,9.1,29.88,West,269,15.0,15.0,36,0.00,CLR,,0.00,WeatherDisplay:10.37,2013-02-23 20:45:00,
2013-02-23 13:50:00,33.5,10.6,29.88,WNW,282,13.8,13.8,38,0.00,CLR,,0.00,WeatherDisplay:10.37,2013-02-23 20:50:00,
2013-02-23 13:55:00,34.0,11.6,29.87,WSW,248,9.2,9.2,39,0.00,CLR,,0.00,WeatherDisplay:10.37,2013-02-23 20:55:00,
2013-02-23 14:00:00,34.6,12.1,29.87,West,280,10.4,10.4,39,0.00,CLR,,0.00,WeatherDisplay:10.37,2013-02-23 21:00:00,
2013-02-23 14:05:00,34.6,11.6,29.87,WNW,284,11.5,11.5,38,0.00,CLR,,0.00,WeatherDisplay:10.37,2013-02-23 21:05:00,
2013-02-23 14:10:00,34.7,11.0,29.86,SW,236,12.7,12.7,37,0.00,CLR,,0.00,WeatherDisplay:10.37,2013-02-23 21:10:00,
2013-02-23 14:15:00,34.9,12.4,29.86,WSW,257,8.1,8.1,39,0.00,CLR,,0.00,WeatherDisplay:10.37,2013-02-23 21:15:00,
2013-02-23 14:20:00,35.3,11.6,29.86,SW,229,13.8,13.8,37,0.00,CLR,,0.00,WeatherDisplay:10.37,2013-02-23 21:20:00,
2013-02-23 14:25:00,35.3,10.3,29.87,WSW,257,16.1,16.1,35,0.00,CLR,,0.00,WeatherDisplay:10.37,2013-02-23 21:25:00,
2013-02-23 14:30:00,35.5,12.4,29.86,WSW,254,9.2,9.2,38,0.00,CLR,,0.00,WeatherDisplay:10.37,2013-02-23 21:30:00,
2013-02-23 14:35:00,35.5,11.1,29.86,West,268,8.1,8.1,36,0.00,CLR,,0.00,WeatherDisplay:10.37,2013-02-23 21:35:00,
2013-02-23 14:40:00,35.3,11.6,29.86,WNW,285,8.0,8.0,37,0.00,CLR,,0.00,WeatherDisplay:10.37,2013-02-23 21:40:00,
2013-02-23 14:45:00,35.3,10.3,29.86,West,260,4.6,4.6,35,0.00,CLR,,0.00,WeatherDisplay:10.37,2013-02-23 21:45:00,
2013-02-23 14:50:00,35.5,11.1,29.86,West,275,4.0,4.0,36,0.00,CLR,,0.00,WeatherDisplay:10.37,2013-02-23 21:50:00,
2013-02-23 14:55:00,35.5,10.5,29.86,West,267,7.0,7.0,35,0.00,CLR,,0.00,WeatherDisplay:10.37,2013-02-23 21:55:00,
2013-02-23 15:00:00,35.5,9.9,29.86,West,261,16.0,16.0,34,0.00,CLR,,0.00,WeatherDisplay:10.37,2013-02-23 22:00:00,
2013-02-23 15:05:00,35.3,11.0,29.86,WSW,246,6.0,6.0,36,0.00,CLR,,0.00,WeatherDisplay:10.37,2013-02-23 22:05:00,
2013-02-23 15:10:00,35.5,10.5,29.86,WSW,251,9.2,9.2,35,0.00,CLR,,0.00,WeatherDisplay:10.37,2013-02-23 22:10:00,
2013-02-23 15:15:00,35.6,10.6,29.85,West,260,5.8,5.8,35,0.00,CLR,,0.00,WeatherDisplay:10.37,2013-02-23 22:15:00,
2013-02-23 15:20:00,35.6,11.2,29.85,West,264,6.9,6.9,36,0.00,CLR,,0.00,WeatherDisplay:10.37,2013-02-23 22:20:00,
2013-02-23 15:25:00,35.5,11.1,29.85,West,281,11.0,11.0,36,0.00,CLR,,0.00,WeatherDisplay:10.37,2013-02-23 22:25:00,
2013-02-23 15:30:00,35.0,11.3,29.85,WSW,255,10.4,10.4,37,0.00,CLR,,0.00,WeatherDisplay:10.37,2013-02-23 22:30:00,
2013-02-23 15:35:00,34.7,12.2,29.85,SSW,212,9.2,9.2,39,0.00,CLR,,0.00,WeatherDisplay:10.37,2013-02-23 22:35:00,
2013-02-23 15:40:00,34.4,10.8,29.85,WSW,254,11.5,11.5,37,0.00,CLR,,0.00,WeatherDisplay:10.37,2013-02-23 22:40:00,
2013-02-23 15:45:00,34.0,11.0,29.85,West,281,9.2,9.2,38,0.00,CLR,,0.00,WeatherDisplay:10.37,2013-02-23 22:45:00,
2013-02-23 15:50:00,33.5,11.2,29.85,SW,236,5.0,5.0,39,0.00,CLR,,0.00,WeatherDisplay:10.37,2013-02-23 22:50:00,
2013-02-23 15:55:00,32.9,11.2,29.85,WNW,286,9.0,9.0,40,0.00,CLR,,0.00,WeatherDisplay:10.37,2013-02-23 22:55:00,
2013-02-23 16:00:00,32.2,11.1,29.84,West,261,4.6,4.6,41,0.00,CLR,,0.00,WeatherDisplay:10.37,2013-02-23 23:00:00,
2013-02-23 16:05:00,31.9,11.4,29.84,West,263,5.8,5.8,42,0.00,CLR,,0.00,WeatherDisplay:10.37,2013-02-23 23:05:00,
2013-02-23 16:10:00,31.5,11.5,29.84,West,267,4.6,4.6,43,0.00,CLR,,0.00,WeatherDisplay:10.37,2013-02-23 23:10:00,
2013-02-23 16:15:00,31.3,11.4,29.84,West,279,3.5,3.5,43,0.00,CLR,,0.00,WeatherDisplay:10.37,2013-02-23 23:15:00,
2013-02-23 16:20:00,31.0,10.6,29.84,West,276,4.6,4.6,42,0.00,CLR,,0.00,WeatherDisplay:10.37,2013-02-23 23:20:00,
2013-02-23 16:25:00,30.9,11.5,29.83,West,261,5.8,5.8,44,0.00,CLR,,0.00,WeatherDisplay:10.37,2013-02-23 23:25:00,
2013-02-23 16:30:00,30.9,11.5,29.83,WNW,283,3.5,3.5,44,0.00,CLR,,0.00,WeatherDisplay:10.37,2013-02-23 23:30:00,
2013-02-23 16:35:00,30.7,11.8,29.83,WNW,283,0.0,0.0,45,0.00,CLR,,0.00,WeatherDisplay:10.37,2013-02-23 23:35:00,
2013-02-23 16:40:00,30.3,12.9,29.82,WNW,283,0.0,0.0,48,0.00,CLR,,0.00,WeatherDisplay:10.37,2013-02-23 23:40:00,
2013-02-23 16:45:00,29.8,11.5,29.82,WNW,283,0.0,0.0,46,0.00,CLR,,0.00,WeatherDisplay:10.37,2013-02-23 23:45:00,
2013-02-23 16:50:00,29.4,11.1,29.82,WNW,283,1.1,1.1,46,0.00,CLR,,0.00,WeatherDisplay:10.37,2013-02-23 23:50:00,
2013-02-23 16:55:00,29.3,11.5,29.81,SW,236,3.5,3.5,47,0.00,CLR,,0.00,WeatherDisplay:10.37,2013-02-23 23:55:00,
2013-02-23 17:00:00,29.3,11.5,29.81,WSW,250,5.8,5.8,47,0.00,CLR,,0.00,WeatherDisplay:10.37,2013-02-24 00:00:00,
2013-02-23 17:05:00,29.3,11.1,29.81,WSW,242,6.0,6.0,46,0.00,CLR,,0.00,WeatherDisplay:10.37,2013-02-24 00:05:00,
2013-02-23 17:10:00,29.3,12.0,29.81,West,273,0.0,0.0,48,0.00,CLR,,0.00,WeatherDisplay:10.37,2013-02-24 00:10:00,
2013-02-23 17:15:00,28.8,11.6,29.81,West,273,3.5,3.5,48,0.00,CLR,,0.00,WeatherDisplay:10.37,2013-02-24 00:15:00,
2013-02-23 17:20:00,28.7,11.5,29.82,West,273,3.5,3.5,48,0.00,CLR,,0.00,WeatherDisplay:10.37,2013-02-24 00:20:00,
2013-02-23 17:25:00,29.0,11.7,29.82,WNW,282,3.5,3.5,48,0.00,CLR,,0.00,WeatherDisplay:10.37,2013-02-24 00:25:00,
2013-02-23 17:30:00,29.3,12.5,29.83,West,281,1.1,0.0,49,0.00,CLR,,0.00,WeatherDisplay:10.37,2013-02-24 00:30:00,
2013-02-23 17:35:00,29.1,11.4,29.84,West,280,3.0,3.0,47,0.00,CLR,,0.00,WeatherDisplay:10.37,2013-02-24 00:35:00,
2013-02-23 17:40:00,29.0,11.3,29.85,North,349,8.1,8.1,47,0.00,CLR,,0.00,WeatherDisplay:10.37,2013-02-24 00:40:00,
2013-02-23 17:45:00,28.5,11.3,29.84,WSW,243,2.0,2.0,48,0.00,CLR,,0.00,WeatherDisplay:10.37,2013-02-24 00:45:00,
2013-02-23 17:50:00,28.1,10.9,29.85,West,271,5.0,5.0,48,0.00,CLR,,0.00,WeatherDisplay:10.37,2013-02-24 00:50:00,
2013-02-23 17:55:00,28.1,10.9,29.84,West,279,6.9,6.9,48,0.00,CLR,,0.00,WeatherDisplay:10.37,2013-02-24 00:55:00,
2013-02-23 18:00:00,28.1,10.9,29.84,WSW,248,8.1,8.1,48,0.00,CLR,,0.00,WeatherDisplay:10.37,2013-02-24 01:00:00,
2013-02-23 18:05:00,28.1,10.9,29.84,WSW,249,4.0,4.0,48,0.00,CLR,,0.00,WeatherDisplay:10.37,2013-02-24 01:05:00,
2013-02-23 18:10:00,27.9,11.6,29.83,WSW,257,0.0,0.0,50,0.00,CLR,,0.00,WeatherDisplay:10.37,2013-02-24 01:10:00,
2013-02-23 18:15:00,27.3,12.0,29.83,WSW,257,1.1,1.1,52,0.00,CLR,,0.00,WeatherDisplay:10.37,2013-02-24 01:15:00,
2013-02-23 18:20:00,27.0,11.3,29.83,WSW,257,3.5,3.5,51,0.00,CLR,,0.00,WeatherDisplay:10.37,2013-02-24 01:20:00,
2013-02-23 18:25:00,27.2,11.9,29.83,West,272,5.8,5.8,52,0.00,CLR,,0.00,WeatherDisplay:10.37,2013-02-24 01:25:00,
2013-02-23 18:30:00,27.3,12.0,29.83,West,264,5.8,5.8,52,0.00,CLR,,0.00,WeatherDisplay:10.37,2013-02-24 01:30:00,
2013-02-23 18:35:00,27.5,12.2,29.83,West,259,0.0,0.0,52,0.00,CLR,,0.00,WeatherDisplay:10.37,2013-02-24 01:35:00,
2013-02-23 18:40:00,27.3,12.4,29.83,West,259,1.1,1.1,53,0.00,CLR,,0.00,WeatherDisplay:10.37,2013-02-24 01:40:00,
2013-02-23 18:45:00,27.5,12.6,29.83,West,278,2.0,2.0,53,0.00,CLR,,0.00,WeatherDisplay:10.37,2013-02-24 01:45:00,
2013-02-23 18:50:00,27.8,12.9,29.82,West,278,2.0,2.0,53,0.00,CLR,,0.00,WeatherDisplay:10.37,2013-02-24 01:50:00,
2013-02-23 18:55:00,27.8,12.9,29.82,South,181,2.0,2.0,53,0.00,CLR,,0.00,WeatherDisplay:10.37,2013-02-24 01:55:00,
2013-02-23 19:00:00,27.9,13.0,29.82,South,181,0.0,0.0,53,0.00,CLR,,0.00,WeatherDisplay:10.37,2013-02-24 02:00:00,
2013-02-23 19:05:00,27.9,13.0,29.81,WNW,292,3.5,3.5,53,0.00,CLR,,0.00,WeatherDisplay:10.37,2013-02-24 02:05:00,
2013-02-23 19:10:00,28.1,13.6,29.81,NW,321,1.1,1.1,54,0.00,CLR,,0.00,WeatherDisplay:10.37,2013-02-24 02:10:00,
2013-02-23 19:15:00,28.2,14.5,29.81,ENE,78,0.0,0.0,56,0.00,CLR,,0.00,WeatherDisplay:10.37,2013-02-24 02:15:00,
2013-02-23 19:20:00,27.9,13.8,29.81,ENE,78,2.3,2.3,55,0.00,CLR,,0.00,WeatherDisplay:10.37,2013-02-24 02:20:00,
2013-02-23 19:25:00,27.9,14.2,29.81,SSE,163,3.5,3.5,56,0.00,CLR,,0.00,WeatherDisplay:10.37,2013-02-24 02:25:00,
2013-02-23 19:30:00,27.8,14.1,29.81,WSW,242,4.6,4.6,56,0.00,CLR,,0.00,WeatherDisplay:10.37,2013-02-24 02:30:00,
2013-02-23 19:35:00,27.8,13.3,29.81,WNW,283,6.9,6.9,54,0.00,CLR,,0.00,WeatherDisplay:10.37,2013-02-24 02:35:00,
2013-02-23 19:40:00,27.8,14.1,29.81,South,184,3.5,3.5,56,0.00,CLR,,0.00,WeatherDisplay:10.37,2013-02-24 02:40:00,
2013-02-23 19:45:00,27.6,13.5,29.81,WNW,288,3.5,3.5,55,0.00,CLR,,0.00,WeatherDisplay:10.37,2013-02-24 02:45:00,
2013-02-23 19:50:00,27.5,14.2,29.81,WNW,288,0.0,0.0,57,0.00,CLR,,0.00,WeatherDisplay:10.37,2013-02-24 02:50:00,
2013-02-23 19:55:00,27.5,13.4,29.81,WNW,288,0.0,0.0,55,0.00,CLR,,0.00,WeatherDisplay:10.37,2013-02-24 02:55:00,
2013-02-23 20:00:00,27.3,14.1,29.81,WNW,288,0.0,0.0,57,0.00,CLR,,0.00,WeatherDisplay:10.37,2013-02-24 03:00:00,
2013-02-23 20:05:00,27.0,13.4,29.80,WNW,288,0.0,0.0,56,0.00,CLR,,0.00,WeatherDisplay:10.37,2013-02-24 03:05:00,
2013-02-23 20:10:00,26.9,13.7,29.80,WNW,288,0.0,0.0,57,0.00,CLR,,0.00,WeatherDisplay:10.37,2013-02-24 03:10:00,
2013-02-23 20:15:00,26.4,14.0,29.80,WNW,288,0.0,0.0,59,0.00,CLR,,0.00,WeatherDisplay:10.37,2013-02-24 03:15:00,
2013-02-23 20:20:00,26.0,11.6,29.80,West,261,5.0,5.0,54,0.00,CLR,,0.00,WeatherDisplay:10.37,2013-02-24 03:20:00,
2013-02-23 20:25:00,26.1,10.9,29.79,WSW,240,8.1,8.1,52,0.00,CLR,,0.00,WeatherDisplay:10.37,2013-02-24 03:25:00,
2013-02-23 20:30:00,26.3,9.7,29.80,SW,234,5.8,5.8,49,0.00,CLR,,0.00,WeatherDisplay:10.37,2013-02-24 03:30:00,
2013-02-23 20:35:00,26.4,9.3,29.79,West,261,9.2,9.2,48,0.00,CLR,,0.00,WeatherDisplay:10.37,2013-02-24 03:35:00,
2013-02-23 20:40:00,26.4,9.8,29.79,West,278,1.1,0.0,49,0.00,CLR,,0.00,WeatherDisplay:10.37,2013-02-24 03:40:00,
2013-02-23 20:45:00,26.3,9.2,29.79,West,278,0.0,0.0,48,0.00,CLR,,0.00,WeatherDisplay:10.37,2013-02-24 03:45:00,
2013-02-23 20:50:00,26.0,9.4,29.79,West,278,0.0,0.0,49,0.00,CLR,,0.00,WeatherDisplay:10.37,2013-02-24 03:50:00,
2013-02-23 20:55:00,25.7,10.0,29.79,West,278,1.1,0.0,51,0.00,CLR,,0.00,WeatherDisplay:10.37,2013-02-24 03:55:00,
2013-02-23 21:00:00,25.4,9.3,29.79,West,278,0.0,0.0,50,0.00,CLR,,0.00,WeatherDisplay:10.37,2013-02-24 04:00:00,
2013-02-23 21:05:00,25.1,9.9,29.79,West,278,1.1,1.1,52,0.00,CLR,,0.00,WeatherDisplay:10.37,2013-02-24 04:05:00,
2013-02-23 21:10:00,24.7,10.0,29.79,West,278,0.0,0.0,53,0.00,CLR,,0.00,WeatherDisplay:10.37,2013-02-24 04:10:00,
2013-02-23 21:15:00,24.1,9.8,29.79,West,278,0.0,0.0,54,0.00,CLR,,0.00,WeatherDisplay:10.37,2013-02-24 04:15:00,
2013-02-23 21:20:00,23.6,10.2,29.79,West,278,0.0,0.0,56,0.00,CLR,,0.00,WeatherDisplay:10.37,2013-02-24 04:20:00,
2013-02-23 21:25:00,23.5,10.1,29.79,West,278,0.0,0.0,56,0.00,CLR,,0.00,WeatherDisplay:10.37,2013-02-24 04:25:00,
2013-02-23 21:30:00,23.5,10.5,29.79,West,278,0.0,0.0,57,0.00,CLR,,0.00,WeatherDisplay:10.37,2013-02-24 04:30:00,
2013-02-23 21:35:00,23.2,10.6,29.79,West,278,0.0,0.0,58,0.00,CLR,,0.00,WeatherDisplay:10.37,2013-02-24 04:35:00,
2013-02-23 21:40:00,22.7,11.3,29.79,West,278,0.0,0.0,61,0.00,CLR,,0.00,WeatherDisplay:10.37,2013-02-24 04:40:00,
2013-02-23 21:45:00,22.4,10.6,29.79,West,278,0.0,0.0,60,0.00,CLR,,0.00,WeatherDisplay:10.37,2013-02-24 04:45:00,
2013-02-23 21:50:00,22.1,11.4,29.79,West,278,0.0,0.0,63,0.00,CLR,,0.00,WeatherDisplay:10.37,2013-02-24 04:50:00,
2013-02-23 21:55:00,22.1,10.7,29.78,West,278,0.0,0.0,61,0.00,CLR,,0.00,WeatherDisplay:10.37,2013-02-24 04:55:00,
2013-02-23 22:00:00,22.2,10.8,29.78,West,278,0.0,0.0,61,0.00,CLR,,0.00,WeatherDisplay:10.37,2013-02-24 05:00:00,
2013-02-23 22:01:00,22.2,11.5,29.78,West,278,0.0,0.0,63,0.00,CLR,,0.00,WeatherDisplay:10.37,2013-02-24 05:01:00,
2013-02-23 22:06:00,22.4,11.0,29.78,West,278,0.0,0.0,61,0.00,CLR,,0.00,WeatherDisplay:10.37,2013-02-24 05:06:00,
2013-02-23 22:07:00,22.4,11.0,29.78,West,278,0.0,0.0,61,0.00,CLR,,0.00,WeatherDisplay:10.37,2013-02-24 05:07:00,
2013-02-23 22:12:00,22.5,10.7,29.77,West,278,0.0,0.0,60,0.00,CLR,,0.00,WeatherDisplay:10.37,2013-02-24 05:12:00,
2013-02-23 22:16:00,22.7,10.5,29.77,West,278,0.0,0.0,59,0.00,CLR,,0.00,WeatherDisplay:10.37,2013-02-24 05:16:00,
2013-02-23 22:21:00,23.0,10.8,29.77,West,278,2.3,2.3,59,0.00,CLR,,0.00,WeatherDisplay:10.37,2013-02-24 05:21:00,
2013-02-23 22:26:00,23.2,11.0,29.77,West,278,3.5,3.5,59,0.00,CLR,,0.00,WeatherDisplay:10.37,2013-02-24 05:26:00,
2013-02-23 22:31:00,23.3,11.4,29.77,West,278,0.0,0.0,60,0.00,CLR,,0.00,WeatherDisplay:10.37,2013-02-24 05:31:00,
2013-02-23 22:36:00,23.3,12.6,29.77,West,278,0.0,0.0,63,0.00,CLR,,0.00,WeatherDisplay:10.37,2013-02-24 05:36:00,
2013-02-23 22:41:00,23.2,12.5,29.78,West,278,0.0,0.0,63,0.00,CLR,,0.00,WeatherDisplay:10.37,2013-02-24 05:41:00,
2013-02-23 22:46:00,23.5,13.1,29.78,West,278,0.0,0.0,64,0.00,CLR,,0.00,WeatherDisplay:10.37,2013-02-24 05:46:00,
2013-02-23 22:51:00,23.3,13.3,29.77,West,278,0.0,0.0,65,0.00,CLR,,0.00,WeatherDisplay:10.37,2013-02-24 05:51:00,
2013-02-23 22:56:00,23.2,14.9,29.76,West,278,2.3,0.0,70,0.00,CLR,,0.00,WeatherDisplay:10.37,2013-02-24 05:56:00,
2013-02-23 23:01:00,22.9,15.5,29.76,West,278,0.0,0.0,73,0.00,CLR,,0.00,WeatherDisplay:10.37,2013-02-24 06:01:00,
2013-02-23 23:06:00,22.9,16.2,29.75,West,278,0.0,0.0,75,0.00,CLR,,0.00,WeatherDisplay:10.37,2013-02-24 06:06:00,
2013-02-23 23:11:00,22.7,16.3,29.75,West,278,0.0,0.0,76,0.00,CLR,,0.00,WeatherDisplay:10.37,2013-02-24 06:11:00,
2013-02-23 23:16:00,22.5,15.8,29.75,West,278,0.0,0.0,75,0.00,CLR,,0.00,WeatherDisplay:10.37,2013-02-24 06:16:00,
2013-02-23 23:21:00,22.4,16.0,29.74,West,278,0.0,0.0,76,0.00,CLR,,0.00,WeatherDisplay:10.37,2013-02-24 06:21:00,
2013-02-23 23:26:00,22.4,15.7,29.74,West,278,0.0,0.0,75,0.00,CLR,,0.00,WeatherDisplay:10.37,2013-02-24 06:26:00,
2013-02-23 23:31:00,22.4,15.7,29.75,West,278,1.0,1.0,75,0.00,CLR,,0.00,WeatherDisplay:10.37,2013-02-24 06:31:00,
2013-02-23 23:36:00,22.4,15.7,29.75,West,278,0.0,0.0,75,0.00,CLR,,0.00,WeatherDisplay:10.37,2013-02-24 06:36:00,
2013-02-23 23:41:00,22.4,16.0,29.75,West,278,3.5,3.5,76,0.00,CLR,,0.00,WeatherDisplay:10.37,2013-02-24 06:41:00,
2013-02-23 23:46:00,22.2,15.8,29.75,West,278,1.0,0.0,76,0.00,CLR,,0.00,WeatherDisplay:10.37,2013-02-24 06:46:00,
2013-02-23 23:51:00,22.2,16.1,29.75,West,278,2.3,0.0,77,0.00,CLR,,0.00,WeatherDisplay:10.37,2013-02-24 06:51:00,
2013-02-23 23:56:00,22.2,16.4,29.75,West,278,0.0,0.0,78,0.00,CLR,,0.00,WeatherDisplay:10.37,2013-02-24 06:56:00,